• Join FlightAware (Why Join?)
  • Login
  • US Flag 
07:14AM EDT


 

Airport Tracker/Info


-or-


 

Live Flight TrackerFlight Track Log ✈ SWA862 ✈ 20-Apr-2013 ✈ KPHX - KSMF

Flight Track Log - Related Links

Times and Time Zones

All times are in EDT time to prevent confusion due to time zone crossing. See the SWA862 flight status page for this flight to view local times or setup timezone preferences in your user account.

Time Position Orientation Groundspeed Altitude Reporting Facility
EDT Latitude Longitude Course Direction KTS MPH feet Rate Location/Type
12:49PM 33.4333 -111.9833 96° East 176 203 2,000  Level Phoenix TRACON
12:50PM 33.4319 -111.9675 96° East 184 212 2,400 1,980 Climbing Albuquerque Center
12:51PM 33.4353 -111.8917 87° East 227 261 4,800 2,220 Climbing Albuquerque Center
12:52PM 33.3797 -111.8847 174° South 268 308 7,100 2,640 Climbing Albuquerque Center
12:53PM 33.3800 -111.9925 270° West 274 315 10,300 2,340 Climbing Albuquerque Center
12:54PM 33.3894 -112.0956 276° West 317 365 12,000 1,980 Climbing Albuquerque Center
12:55PM 33.3986 -112.2044 276° West 329 379 14,500 2,220 Climbing Albuquerque Center
12:56PM 33.4094 -112.3203 276° West 346 398 16,600 1,980 Climbing Albuquerque Center
12:57PM 33.4200 -112.4389 276° West 356 410 18,700 1,860 Climbing Albuquerque Center
12:58PM 33.4306 -112.5606 276° West 365 420 20,500 1,620 Climbing Albuquerque Center
12:59PM 33.4425 -112.6956 276° West 373 429 22,100 1,560 Climbing Albuquerque Center
01:00PM 33.4528 -112.8236 276° West 383 441 23,800 1,560 Climbing Albuquerque Center
01:01PM 33.4767 -112.9478 283° West 385 443 25,300 1,500 Climbing Albuquerque Center
01:02PM 33.5019 -113.0739 284° West 388 447 27,000 1,740 Climbing Albuquerque Center
01:03PM 33.5289 -113.2211 282° West 381 438 29,000 1,440 Climbing Albuquerque Center
01:04PM 33.5519 -113.3419 283° West 376 433 30,000 480 Climbing Albuquerque Center
01:05PM 33.5758 -113.4675 283° West 383 441 30,000 720 Level Albuquerque Center
01:06PM 33.5994 -113.5906 283° West 382 440 31,600 960 Climbing Albuquerque Center
01:07PM 33.6244 -113.7275 282° West 370 426 32,000 180 Climbing Albuquerque Center
01:08PM 33.6467 -113.8458 283° West 366 421 32,000  Level Albuquerque Center
01:09PM 33.6675 -113.9681 282° West 371 427 32,000  Level Albuquerque Center
01:10PM 33.6903 -114.0881 283° West 370 426 32,000  Level Albuquerque Center
01:12PM 33.7133 -114.2144 282° West 372 428 32,000  Level Albuquerque Center
01:13PM 33.7386 -114.3333 284° West 369 425 32,000  Level Albuquerque Center
01:13PM 33.7675 -114.4386 288° West 371 427 32,000  Level Los Angeles Center
01:14PM 33.7975 -114.5572 287° West 371 427 32,000  Level Los Angeles Center
01:15PM 33.8344 -114.7000 287° West 374 430 32,000  Level Los Angeles Center
01:17PM 33.8647 -114.8192 287° West 375 432 32,000  Level Los Angeles Center
01:18PM 33.8947 -114.9375 287° West 372 428 32,000  Level Los Angeles Center
01:19PM 33.9236 -115.0569 286° West 372 428 32,000  Level Los Angeles Center
01:20PM 33.9531 -115.1750 287° West 372 428 32,000  Level Los Angeles Center
01:21PM 33.9822 -115.2942 286° West 371 427 32,000  Level Los Angeles Center
01:22PM 34.0175 -115.4367 287° West 371 427 32,000  Level Los Angeles Center
01:23PM 34.0475 -115.5561 287° West 373 429 32,000  Level Los Angeles Center
01:24PM 34.0764 -115.6786 286° West 378 435 32,000  Level Los Angeles Center
01:25PM 34.1069 -115.7994 287° West 379 436 32,000  Level Los Angeles Center
01:26PM 34.1364 -115.9228 286° West 380 437 32,000  Level Los Angeles Center
01:27PM 34.1653 -116.0439 286° West 379 436 32,000  Level Los Angeles Center
01:28PM 34.2008 -116.1928 286° West 383 441 32,000  Level Los Angeles Center
01:29PM 34.2297 -116.3164 286° West 383 441 32,000  Level Los Angeles Center
01:30PM 34.2592 -116.4389 286° West 381 438 32,000  Level Los Angeles Center
01:31PM 34.2883 -116.5608 286° West 379 436 32,000  Level Los Angeles Center
01:32PM 34.3175 -116.6842 286° West 381 438 32,000  Level Los Angeles Center
01:33PM 34.3461 -116.8067 286° West 379 436 32,000  Level Los Angeles Center
01:34PM 34.3806 -116.9547 286° West 381 438 32,000  Level Los Angeles Center
01:35PM 34.4086 -117.0772 286° West 378 435 32,000  Level Los Angeles Center
01:36PM 34.4375 -117.2022 286° West 383 441 32,000  Level Los Angeles Center
01:37PM 34.4661 -117.3289 285° West 388 447 32,000  Level Los Angeles Center
01:38PM 34.4953 -117.4558 286° West 390 449 32,000  Level Los Angeles Center
01:39PM 34.5236 -117.5842 285° West 392 451 32,000  Level Los Angeles Center
01:40PM 34.5514 -117.7139 285° West 396 456 32,000  Level Los Angeles Center
01:41PM 34.5875 -117.8683 286° West 395 455 32,000  Level Los Angeles Center
01:42PM 34.6156 -117.9986 285° West 397 457 32,000  Level Los Angeles Center
01:43PM 34.6669 -118.1164 298° West 403 464 32,000  Level Los Angeles Center
01:44PM 34.7381 -118.2194 310° West 396 456 32,000  Level Los Angeles Center
01:45PM 34.8081 -118.3208 310° West 392 451 32,000  Level Los Angeles Center
01:47PM 34.8794 -118.4244 310° West 396 456 32,000  Level Los Angeles Center
01:48PM 34.9608 -118.5417 310° West 396 456 32,000  Level Los Angeles Center
01:49PM 35.0322 -118.6442 310° West 397 457 32,000  Level Los Angeles Center
01:50PM 35.1033 -118.7458 311° West 395 455 32,000  Level Los Angeles Center
01:51PM 35.1750 -118.8447 312° West 389 448 32,000  Level Los Angeles Center
01:52PM 35.2961 -118.9156 334° Northwest 402 463 32,000  Level Los Angeles Center
01:53PM 35.3964 -118.9703 336° Northwest 399 459 32,000  Level Los Angeles Center
01:54PM 35.4958 -119.0258 336° Northwest 396 456 32,000  Level Los Angeles Center
01:55PM 35.5961 -119.0817 336° Northwest 396 456 32,000  Level Los Angeles Center
01:55PM 35.6528 -119.1153 334° Northwest 400 460 32,000  Level Oakland Center
01:56PM 35.7725 -119.1825 336° Northwest 397 457 32,000 -60 Level Oakland Center
01:58PM 35.8719 -119.2372 336° Northwest 395 455 31,900  Descending Oakland Center
01:59PM 35.9717 -119.2947 335° Northwest 396 456 32,000  Climbing Oakland Center
02:00PM 36.0731 -119.3503 336° Northwest 403 464 32,000  Level Oakland Center
02:01PM 36.1703 -119.4092 334° Northwest 393 452 32,000  Level Oakland Center
02:02PM 36.2639 -119.4792 329° Northwest 394 453 32,000  Level Oakland Center
02:03PM 36.3575 -119.5494 329° Northwest 394 453 32,000  Level Oakland Center
02:04PM 36.4519 -119.6192 329° Northwest 396 456 32,000  Level Oakland Center
02:05PM 36.5642 -119.7017 329° Northwest 394 453 32,000  Level Oakland Center
02:06PM 36.6567 -119.7722 329° Northwest 392 451 32,000  Level Oakland Center
02:07PM 36.7500 -119.8442 328° Northwest 395 455 32,000  Level Oakland Center
02:08PM 36.8425 -119.9119 330° Northwest 387 445 32,000  Level Oakland Center
02:09PM 36.9336 -119.9803 329° Northwest 385 443 32,000  Level Oakland Center
02:10PM 37.0256 -120.0503 329° Northwest 387 445 32,000  Level Oakland Center
02:11PM 37.1269 -120.1258 329° Northwest 384 442 32,000 -1,020 Level Oakland Center
02:12PM 37.2183 -120.1942 329° Northwest 386 444 30,000 -2,460 Descending Oakland Center
02:13PM 37.3119 -120.2689 328° Northwest 402 463 27,000 -2,700 Descending Oakland Center
02:14PM 37.4058 -120.3325 332° Northwest 391 450 24,500 -1,800 Descending Oakland Center
02:15PM 37.4883 -120.4092 324° Northwest 372 428 23,400 -1,200 Descending Oakland Center
02:15PM 37.5167 -120.4500 311° West 359 413 23,000 -1,020 Descending Northern Cal TRACON
02:16PM 37.6000 -120.5167 328° Northwest 366 421 22,100 -900 Descending Northern Cal TRACON
02:17PM 37.6467 -120.5692 318° Northwest 367 422 21,500 -960 Descending Oakland Center
02:18PM 37.7500 -120.6833 319° Northwest 366 421 20,300 -1,080 Descending Northern Cal TRACON
02:19PM 37.8333 -120.7500 328° Northwest 365 420 19,300 -1,020 Descending Northern Cal TRACON
02:20PM 37.9022 -120.8264 319° Northwest 364 419 18,400 -960 Descending Oakland Center
02:21PM 37.9792 -120.9056 321° Northwest 357 411 17,500 -1,020 Descending Oakland Center
02:22PM 38.0553 -120.9819 322° Northwest 351 404 16,400 -1,080 Descending Oakland Center
02:23PM 38.1175 -121.0639 314° West 326 375 15,400 -1,320 Descending Oakland Center
02:24PM 38.1667 -121.1333 312° West 298 343 13,900 -1,620 Descending Northern Cal TRACON
02:25PM 38.2167 -121.2167 307° West 274 315 12,400 -1,680 Descending Northern Cal TRACON
02:26PM 38.2667 -121.2833 314° West 279 321 10,600 -1,740 Descending Northern Cal TRACON
02:27PM 38.3167 -121.3667 307° West 272 313 9,000 -1,740 Descending Northern Cal TRACON
02:28PM 38.3667 -121.4333 314° West 274 315 7,300 -1,140 Descending Northern Cal TRACON
02:29PM 38.4167 -121.5000 314° West 251 289 6,900 -600 Descending Northern Cal TRACON
02:30PM 38.4500 -121.5667 303° West 229 264 6,100 -1,020 Descending Northern Cal TRACON
02:31PM 38.5000 -121.6000 332° Northwest 194 223 4,900 -1,440 Descending Northern Cal TRACON
02:32PM 38.5500 -121.6000 360° North 171 197 3,300 -1,500 Descending Northern Cal TRACON
02:33PM 38.6000 -121.6000 360° North 156 180 1,900 -1,140 Descending Northern Cal TRACON
02:34PM 38.6333 -121.6000 360° North 136 157 1,100 -780 Descending Northern Cal TRACON
02:35PM 38.6667 -121.6000 360° North 137 158 400 -720 Descending Northern Cal TRACON
02:37PM 38.6833 -121.5833 46° Northeast  Level FlightAware Approximate
02:44PM 38.6954 -121.5908 46° Northeast  Level Estimated
02:45PM 38.6954 -121.5908 46° Northeast  Level Estimated